sensor_id;sensor_type;location;lat;lon;timestamp;pressure;altitude;pressure_sealevel;temperature;humidity
37610;BME280;23457;51.966;8.230;2023-05-21T00:00:49;101126.22;;;15.18;93.20
37610;BME280;23457;51.966;8.230;2023-05-21T00:03:17;101120.13;;;15.25;93.04
37610;BME280;23457;51.966;8.230;2023-05-21T00:05:44;101119.25;;;15.19;93.54
37610;BME280;23457;51.966;8.230;2023-05-21T00:08:12;101127.94;;;15.13;94.06
37610;BME280;23457;51.966;8.230;2023-05-21T00:10:39;101119.22;;;15.07;95.06
37610;BME280;23457;51.966;8.230;2023-05-21T00:13:06;101121.75;;;14.97;95.77
37610;BME280;23457;51.966;8.230;2023-05-21T00:15:35;101114.00;;;15.17;94.47
37610;BME280;23457;51.966;8.230;2023-05-21T00:18:02;101116.56;;;15.10;94.91
37610;BME280;23457;51.966;8.230;2023-05-21T00:20:29;101115.75;;;15.15;94.84
37610;BME280;23457;51.966;8.230;2023-05-21T00:22:58;101111.28;;;14.97;95.82
37610;BME280;23457;51.966;8.230;2023-05-21T00:25:28;101113.09;;;15.12;95.26
37610;BME280;23457;51.966;8.230;2023-05-21T00:27:55;101106.94;;;14.98;96.10
37610;BME280;23457;51.966;8.230;2023-05-21T00:30:22;101103.44;;;14.96;96.42
37610;BME280;23457;51.966;8.230;2023-05-21T00:32:48;101110.41;;;14.91;96.88
37610;BME280;23457;51.966;8.230;2023-05-21T00:35:16;101102.56;;;14.95;97.04
37610;BME280;23457;51.966;8.230;2023-05-21T00:37:42;101099.94;;;14.97;96.97
37610;BME280;23457;51.966;8.230;2023-05-21T00:40:12;101095.59;;;14.91;97.14
37610;BME280;23457;51.966;8.230;2023-05-21T00:42:39;101096.44;;;14.89;97.53
37610;BME280;23457;51.966;8.230;2023-05-21T00:45:07;101096.34;;;14.70;98.43
37610;BME280;23457;51.966;8.230;2023-05-21T00:47:34;101092.00;;;14.76;98.27
37610;BME280;23457;51.966;8.230;2023-05-21T00:50:02;101090.31;;;14.85;98.46
37610;BME280;23457;51.966;8.230;2023-05-21T00:52:30;101092.84;;;14.67;99.34
37610;BME280;23457;51.966;8.230;2023-05-21T00:54:56;101086.75;;;14.68;99.31
37610;BME280;23457;51.966;8.230;2023-05-21T00:57:25;101083.31;;;14.86;98.28
37610;BME280;23457;51.966;8.230;2023-05-21T00:59:52;101085.94;;;14.80;98.89
37610;BME280;23457;51.966;8.230;2023-05-21T01:02:19;101082.44;;;14.81;98.68
37610;BME280;23457;51.966;8.230;2023-05-21T01:04:52;101083.41;;;15.04;97.38
37610;BME280;23457;51.966;8.230;2023-05-21T01:07:19;101082.53;;;15.08;97.17
37610;BME280;23457;51.966;8.230;2023-05-21T01:09:47;101078.97;;;14.85;98.25
37610;BME280;23457;51.966;8.230;2023-05-21T01:12:14;101072.06;;;15.00;97.58
37610;BME280;23457;51.966;8.230;2023-05-21T01:14:41;101080.75;;;14.95;98.02
37610;BME280;23457;51.966;8.230;2023-05-21T01:17:08;101077.28;;;14.93;97.38
37610;BME280;23457;51.966;8.230;2023-05-21T01:19:36;101069.41;;;14.90;98.12
37610;BME280;23457;51.966;8.230;2023-05-21T01:22:05;101068.50;;;14.85;98.68
37610;BME280;23457;51.966;8.230;2023-05-21T01:24:33;101065.81;;;14.65;99.86
37610;BME280;23457;51.966;8.230;2023-05-21T01:27:02;101063.22;;;14.73;99.78
37610;BME280;23457;51.966;8.230;2023-05-21T01:29:29;101062.34;;;14.75;99.39
37610;BME280;23457;51.966;8.230;2023-05-21T01:32:03;101064.13;;;14.79;99.40
37610;BME280;23457;51.966;8.230;2023-05-21T01:34:40;101055.34;;;14.65;100.00
37610;BME280;23457;51.966;8.230;2023-05-21T01:37:39;101065.84;;;14.77;99.23
37610;BME280;23457;51.966;8.230;2023-05-21T01:43:07;101057.09;;;14.66;100.00
37610;BME280;23457;51.966;8.230;2023-05-21T01:45:38;101064.06;;;14.72;99.78
37610;BME280;23457;51.966;8.230;2023-05-21T01:48:06;101069.28;;;14.64;100.00
37610;BME280;23457;51.966;8.230;2023-05-21T01:50:36;101059.66;;;14.61;100.00
37610;BME280;23457;51.966;8.230;2023-05-21T01:53:04;101054.47;;;14.70;99.99
37610;BME280;23457;51.966;8.230;2023-05-21T01:55:31;101057.09;;;14.66;100.00
37610;BME280;23457;51.966;8.230;2023-05-21T01:57:59;101049.19;;;14.54;100.00
37610;BME280;23457;51.966;8.230;2023-05-21T02:00:28;101052.66;;;14.57;100.00
37610;BME280;23457;51.966;8.230;2023-05-21T02:02:56;101055.31;;;14.56;100.00
37610;BME280;23457;51.966;8.230;2023-05-21T02:05:24;101051.81;;;14.54;100.00
37610;BME280;23457;51.966;8.230;2023-05-21T02:07:51;101051.81;;;14.54;100.00
37610;BME280;23457;51.966;8.230;2023-05-21T02:10:18;101045.69;;;14.52;100.00
37610;BME280;23457;51.966;8.230;2023-05-21T02:12:45;101047.44;;;14.59;100.00
37610;BME280;23457;51.966;8.230;2023-05-21T02:15:11;101056.09;;;14.47;100.00
37610;BME280;23457;51.966;8.230;2023-05-21T02:17:43;101054.28;;;14.39;100.00
37610;BME280;23457;51.966;8.230;2023-05-21T02:20:11;101052.53;;;14.36;100.00
37610;BME280;23457;51.966;8.230;2023-05-21T02:22:44;101046.50;;;14.45;100.00
37610;BME280;23457;51.966;8.230;2023-05-21T02:25:13;101043.00;;;14.41;100.00
37610;BME280;23457;51.966;8.230;2023-05-21T02:27:40;101042.25;;;14.63;100.00
37610;BME280;23457;51.966;8.230;2023-05-21T02:30:09;101051.69;;;14.39;100.00
37610;BME280;23457;51.966;8.230;2023-05-21T02:32:37;101045.66;;;14.47;100.00
37610;BME280;23457;51.966;8.230;2023-05-21T02:35:09;101043.78;;;14.34;100.00
37610;BME280;23457;51.966;8.230;2023-05-21T02:37:38;101041.28;;;14.48;100.00
37610;BME280;23457;51.966;8.230;2023-05-21T02:40:10;101034.25;;;14.39;100.00
37610;BME280;23457;51.966;8.230;2023-05-21T02:42:38;101032.47;;;14.37;100.00
37610;BME280;23457;51.966;8.230;2023-05-21T02:45:09;101039.38;;;14.22;100.00
37610;BME280;23457;51.966;8.230;2023-05-21T02:47:38;101040.19;;;14.14;100.00
37610;BME280;23457;51.966;8.230;2023-05-21T02:50:07;101033.34;;;14.34;100.00
37610;BME280;23457;51.966;8.230;2023-05-21T02:52:42;101027.19;;;14.23;100.00
37610;BME280;23457;51.966;8.230;2023-05-21T02:55:10;101026.09;;;13.93;100.00
37610;BME280;23457;51.966;8.230;2023-05-21T02:57:37;101016.66;;;14.14;100.00
37610;BME280;23457;51.966;8.230;2023-05-21T03:00:05;101021.84;;;14.09;100.00
37610;BME280;23457;51.966;8.230;2023-05-21T03:02:33;101023.59;;;14.09;100.00
37610;BME280;23457;51.966;8.230;2023-05-21T03:05:00;101028.84;;;14.12;100.00
37610;BME280;23457;51.966;8.230;2023-05-21T03:07:28;101025.38;;;14.14;100.00
37610;BME280;23457;51.966;8.230;2023-05-21T03:09:54;101022.69;;;14.01;100.00
37610;BME280;23457;51.966;8.230;2023-05-21T03:12:21;101019.22;;;14.05;100.00
37610;BME280;23457;51.966;8.230;2023-05-21T03:14:48;101018.31;;;14.01;100.00
37610;BME280;23457;51.966;8.230;2023-05-21T03:17:18;101016.63;;;14.09;100.00
37610;BME280;23457;51.966;8.230;2023-05-21T03:19:46;101012.28;;;14.10;100.00
37610;BME280;23457;51.966;8.230;2023-05-21T03:22:14;101020.06;;;14.01;100.00
37610;BME280;23457;51.966;8.230;2023-05-21T03:24:41;101013.94;;;13.92;100.00
37610;BME280;23457;51.966;8.230;2023-05-21T03:27:08;101013.94;;;13.98;100.00
37610;BME280;23457;51.966;8.230;2023-05-21T03:29:34;101020.97;;;14.04;100.00
37610;BME280;23457;51.966;8.230;2023-05-21T03:32:02;101022.63;;;13.91;100.00
37610;BME280;23457;51.966;8.230;2023-05-21T03:34:31;101019.22;;;14.02;100.00
37610;BME280;23457;51.966;8.230;2023-05-21T03:37:01;101020.84;;;13.87;100.00
37610;BME280;23457;51.966;8.230;2023-05-21T03:39:28;101023.50;;;13.95;100.00
37610;BME280;23457;51.966;8.230;2023-05-21T03:41:56;101013.91;;;13.89;100.00
37610;BME280;23457;51.966;8.230;2023-05-21T03:44:35;101021.78;;;13.97;100.00
37610;BME280;23457;51.966;8.230;2023-05-21T03:47:22;101017.28;;;13.76;100.00
37610;BME280;23457;51.966;8.230;2023-05-21T03:49:50;101015.56;;;13.78;100.00
37610;BME280;23457;51.966;8.230;2023-05-21T03:52:16;101022.63;;;13.93;100.00
37610;BME280;23457;51.966;8.230;2023-05-21T03:54:43;101018.22;;;13.86;100.00
37610;BME280;23457;51.966;8.230;2023-05-21T03:57:10;101024.28;;;13.80;100.00
37610;BME280;23457;51.966;8.230;2023-05-21T03:59:37;101027.78;;;13.85;100.00
37610;BME280;23457;51.966;8.230;2023-05-21T04:02:04;101031.31;;;13.90;100.00
37610;BME280;23457;51.966;8.230;2023-05-21T04:04:30;101031.31;;;13.93;100.00
37610;BME280;23457;51.966;8.230;2023-05-21T04:06:59;101024.28;;;13.80;100.00
37610;BME280;23457;51.966;8.230;2023-05-21T04:09:26;101032.13;;;13.83;100.00
37610;BME280;23457;51.966;8.230;2023-05-21T04:11:53;101034.72;;;13.82;100.00
37610;BME280;23457;51.966;8.230;2023-05-21T04:14:21;101038.25;;;13.85;100.00
37610;BME280;23457;51.966;8.230;2023-05-21T04:16:50;101044.38;;;13.90;100.00
37610;BME280;23457;51.966;8.230;2023-05-21T04:19:18;101039.09;;;13.84;100.00
37610;BME280;23457;51.966;8.230;2023-05-21T04:21:48;101047.13;;;14.06;100.00
37610;BME280;23457;51.966;8.230;2023-05-21T04:24:14;101044.31;;;13.83;100.00
37610;BME280;23457;51.966;8.230;2023-05-21T04:26:51;101045.41;;;14.14;100.00
37610;BME280;23457;51.966;8.230;2023-05-21T04:29:18;101043.63;;;14.10;100.00
37610;BME280;23457;51.966;8.230;2023-05-21T04:31:47;101047.13;;;14.09;100.00
37610;BME280;23457;51.966;8.230;2023-05-21T04:34:15;101042.81;;;14.14;100.00
37610;BME280;23457;51.966;8.230;2023-05-21T04:36:45;101050.59;;;14.03;100.00
37610;BME280;23457;51.966;8.230;2023-05-21T04:39:13;101048.06;;;14.21;100.00
37610;BME280;23457;51.966;8.230;2023-05-21T04:41:40;101048.91;;;14.19;100.00
37610;BME280;23457;51.966;8.230;2023-05-21T04:44:07;101048.88;;;14.10;100.00
37610;BME280;23457;51.966;8.230;2023-05-21T04:46:34;101037.56;;;14.12;100.00
37610;BME280;23457;51.966;8.230;2023-05-21T04:49:01;101045.53;;;14.30;100.00
37610;BME280;23457;51.966;8.230;2023-05-21T04:51:29;101042.03;;;14.33;100.00
37610;BME280;23457;51.966;8.230;2023-05-21T04:53:56;101043.69;;;14.16;100.00
37610;BME280;23457;51.966;8.230;2023-05-21T04:56:23;101047.19;;;14.21;100.00
37610;BME280;23457;51.966;8.230;2023-05-21T04:58:53;101042.09;;;14.39;100.00
37610;BME280;23457;51.966;8.230;2023-05-21T05:01:20;101040.41;;;14.41;100.00
37610;BME280;23457;51.966;8.230;2023-05-21T05:03:52;101028.22;;;14.49;100.00
37610;BME280;23457;51.966;8.230;2023-05-21T05:06:19;101034.31;;;14.47;100.00
37610;BME280;23457;51.966;8.230;2023-05-21T05:08:47;101029.09;;;14.44;100.00
37610;BME280;23457;51.966;8.230;2023-05-21T05:11:14;101039.53;;;14.47;100.00
37610;BME280;23457;51.966;8.230;2023-05-21T05:13:41;101039.47;;;14.39;100.00
37610;BME280;23457;51.966;8.230;2023-05-21T05:16:08;101033.50;;;14.58;100.00
37610;BME280;23457;51.966;8.230;2023-05-21T05:18:35;101034.31;;;14.42;100.00
37610;BME280;23457;51.966;8.230;2023-05-21T05:21:02;101028.19;;;14.40;100.00
37610;BME280;23457;51.966;8.230;2023-05-21T05:23:30;101031.75;;;14.57;100.00
37610;BME280;23457;51.966;8.230;2023-05-21T05:25:57;101030.88;;;14.58;100.00
37610;BME280;23457;51.966;8.230;2023-05-21T05:28:25;101026.50;;;14.51;100.00
37610;BME280;23457;51.966;8.230;2023-05-21T05:30:52;101022.16;;;14.52;100.00
37610;BME280;23457;51.966;8.230;2023-05-21T05:33:23;101016.91;;;14.50;100.00
37610;BME280;23457;51.966;8.230;2023-05-21T05:35:51;101023.03;;;14.55;100.00
37610;BME280;23457;51.966;8.230;2023-05-21T05:38:19;101025.63;;;14.51;100.00
37610;BME280;23457;51.966;8.230;2023-05-21T05:40:46;101014.34;;;14.56;100.00
37610;BME280;23457;51.966;8.230;2023-05-21T05:43:13;101018.72;;;14.73;100.00
37610;BME280;23457;51.966;8.230;2023-05-21T05:45:40;101017.91;;;14.80;100.00
37610;BME280;23457;51.966;8.230;2023-05-21T05:48:11;101016.97;;;14.72;100.00
37610;BME280;23457;51.966;8.230;2023-05-21T05:50:38;101011.75;;;14.70;100.00
37610;BME280;23457;51.966;8.230;2023-05-21T05:53:05;101006.50;;;14.64;100.00
37610;BME280;23457;51.966;8.230;2023-05-21T05:55:33;101014.38;;;14.72;100.00
37610;BME280;23457;51.966;8.230;2023-05-21T05:58:00;101000.41;;;14.71;100.00
37610;BME280;23457;51.966;8.230;2023-05-21T06:00:27;101007.44;;;14.87;100.00
37610;BME280;23457;51.966;8.230;2023-05-21T06:02:57;101010.94;;;14.82;100.00
37610;BME280;23457;51.966;8.230;2023-05-21T06:05:27;101012.72;;;14.98;100.00
37610;BME280;23457;51.966;8.230;2023-05-21T06:07:55;101012.72;;;14.98;100.00
37610;BME280;23457;51.966;8.230;2023-05-21T06:10:22;101010.94;;;14.85;100.00
37610;BME280;23457;51.966;8.230;2023-05-21T06:12:48;100995.22;;;14.86;100.00
37610;BME280;23457;51.966;8.230;2023-05-21T06:15:15;100995.25;;;14.91;100.00
37610;BME280;23457;51.966;8.230;2023-05-21T06:17:42;100989.19;;;15.13;100.00
37610;BME280;23457;51.966;8.230;2023-05-21T06:20:11;100997.97;;;15.30;100.00
37610;BME280;23457;51.966;8.230;2023-05-21T06:22:38;100991.00;;;15.45;100.00
37610;BME280;23457;51.966;8.230;2023-05-21T06:25:07;100998.84;;;15.41;100.00
37610;BME280;23457;51.966;8.230;2023-05-21T06:27:37;100993.66;;;15.57;100.00
37610;BME280;23457;51.966;8.230;2023-05-21T06:30:08;100996.25;;;15.60;100.00
37610;BME280;23457;51.966;8.230;2023-05-21T06:32:35;100997.13;;;15.59;100.00
37610;BME280;23457;51.966;8.230;2023-05-21T06:35:03;101002.38;;;15.56;100.00
37610;BME280;23457;51.966;8.230;2023-05-21T06:37:30;100998.00;;;15.56;100.00
37610;BME280;23457;51.966;8.230;2023-05-21T06:39:57;100995.38;;;15.67;100.00
37610;BME280;23457;51.966;8.230;2023-05-21T06:42:23;100997.91;;;15.21;100.00
37610;BME280;23457;51.966;8.230;2023-05-21T06:45:00;101000.63;;;15.62;100.00
37610;BME280;23457;51.966;8.230;2023-05-21T06:47:30;101000.59;;;15.73;100.00
37610;BME280;23457;51.966;8.230;2023-05-21T06:49:58;100989.28;;;15.69;100.00
37610;BME280;23457;51.966;8.230;2023-05-21T06:52:24;100993.63;;;15.72;100.00
37610;BME280;23457;51.966;8.230;2023-05-21T06:54:54;100997.09;;;15.71;100.00
37610;BME280;23457;51.966;8.230;2023-05-21T06:57:23;101001.50;;;15.64;100.00
37610;BME280;23457;51.966;8.230;2023-05-21T06:59:50;101002.34;;;15.71;100.00
37610;BME280;23457;51.966;8.230;2023-05-21T07:02:17;100997.13;;;15.77;100.00
37610;BME280;23457;51.966;8.230;2023-05-21T07:04:44;101008.47;;;15.90;100.00
37610;BME280;23457;51.966;8.230;2023-05-21T07:07:10;101002.34;;;15.62;100.00
37610;BME280;23457;51.966;8.230;2023-05-21T07:09:38;101016.31;;;15.88;100.00
37610;BME280;23457;51.966;8.230;2023-05-21T07:12:06;101020.72;;;15.82;100.00
37610;BME280;23457;51.966;8.230;2023-05-21T07:14:33;101005.84;;;15.64;100.00
37610;BME280;23457;51.966;8.230;2023-05-21T07:17:00;101018.09;;;15.68;100.00
37610;BME280;23457;51.966;8.230;2023-05-21T07:19:27;101013.72;;;15.90;100.00
37610;BME280;23457;51.966;8.230;2023-05-21T07:21:54;101011.06;;;16.03;100.00
37610;BME280;23457;51.966;8.230;2023-05-21T07:24:22;101009.28;;;16.15;100.00
37610;BME280;23457;51.966;8.230;2023-05-21T07:26:49;101006.69;;;16.18;100.00
37610;BME280;23457;51.966;8.230;2023-05-21T07:29:16;101006.63;;;16.31;98.68
37610;BME280;23457;51.966;8.230;2023-05-21T07:31:43;101007.47;;;16.42;97.36
37610;BME280;23457;51.966;8.230;2023-05-21T07:34:09;101012.66;;;16.65;96.49
37610;BME280;23457;51.966;8.230;2023-05-21T07:36:39;101013.41;;;16.95;95.69
37610;BME280;23457;51.966;8.230;2023-05-21T07:39:05;101008.13;;;16.99;94.21
37610;BME280;23457;51.966;8.230;2023-05-21T07:41:33;101005.47;;;17.04;93.96
37610;BME280;23457;51.966;8.230;2023-05-21T07:44:04;101005.38;;;17.22;95.01
37610;BME280;23457;51.966;8.230;2023-05-21T07:46:35;101003.66;;;17.15;93.23
37610;BME280;23457;51.966;8.230;2023-05-21T07:49:02;100995.91;;;16.91;92.62
37610;BME280;23457;51.966;8.230;2023-05-21T07:51:29;101010.81;;;16.89;93.55
37610;BME280;23457;51.966;8.230;2023-05-21T07:53:56;101004.72;;;16.77;95.37
37610;BME280;23457;51.966;8.230;2023-05-21T07:56:30;101005.63;;;16.75;94.82
37610;BME280;23457;51.966;8.230;2023-05-21T07:58:58;101000.28;;;16.95;94.37
37610;BME280;23457;51.966;8.230;2023-05-21T08:01:26;100999.34;;;17.08;93.43
37610;BME280;23457;51.966;8.230;2023-05-21T08:03:56;101002.00;;;16.99;93.72
37610;BME280;23457;51.966;8.230;2023-05-21T08:06:26;101001.16;;;16.95;93.69
37610;BME280;23457;51.966;8.230;2023-05-21T08:08:53;101002.00;;;16.97;94.01
37610;BME280;23457;51.966;8.230;2023-05-21T08:11:20;100997.75;;;16.78;94.87
37610;BME280;23457;51.966;8.230;2023-05-21T08:13:47;101001.97;;;17.03;94.22
37610;BME280;23457;51.966;8.230;2023-05-21T08:16:14;101008.16;;;16.95;95.33
37610;BME280;23457;51.966;8.230;2023-05-21T08:18:42;101003.63;;;17.18;95.09
37610;BME280;23457;51.966;8.230;2023-05-21T08:21:09;100984.41;;;17.10;93.78
37610;BME280;23457;51.966;8.230;2023-05-21T08:23:37;100995.66;;;17.33;93.66
37610;BME280;23457;51.966;8.230;2023-05-21T08:26:04;101002.34;;;17.74;93.43
37610;BME280;23457;51.966;8.230;2023-05-21T08:28:30;100994.28;;;17.95;90.85
37610;BME280;23457;51.966;8.230;2023-05-21T08:31:00;100998.44;;;18.16;92.13
37610;BME280;23457;51.966;8.230;2023-05-21T08:33:29;101002.09;;;18.03;89.68
37610;BME280;23457;51.966;8.230;2023-05-21T08:35:56;100999.72;;;17.74;90.79
37610;BME280;23457;51.966;8.230;2023-05-21T08:38:37;100998.94;;;17.66;92.31
37610;BME280;23457;51.966;8.230;2023-05-21T08:41:23;101006.50;;;17.99;90.92
37610;BME280;23457;51.966;8.230;2023-05-21T08:43:54;101006.59;;;17.90;91.60
37610;BME280;23457;51.966;8.230;2023-05-21T08:46:25;100998.97;;;17.60;91.90
37610;BME280;23457;51.966;8.230;2023-05-21T08:48:54;101003.94;;;17.92;91.89
37610;BME280;23457;51.966;8.230;2023-05-21T08:51:23;101007.97;;;18.24;90.58
37610;BME280;23457;51.966;8.230;2023-05-21T08:53:51;101001.00;;;18.23;89.43
37610;BME280;23457;51.966;8.230;2023-05-21T08:56:19;101003.34;;;18.48;88.99
37610;BME280;23457;51.966;8.230;2023-05-21T08:58:51;101006.06;;;18.40;88.82
37610;BME280;23457;51.966;8.230;2023-05-21T09:01:21;100995.50;;;18.45;88.99
37610;BME280;23457;51.966;8.230;2023-05-21T09:04:00;100997.38;;;18.34;89.21
37610;BME280;23457;51.966;8.230;2023-05-21T09:06:45;100995.19;;;18.74;92.18
37610;BME280;23457;51.966;8.230;2023-05-21T09:09:26;100998.59;;;18.80;87.19
37610;BME280;23457;51.966;8.230;2023-05-21T09:11:53;100992.31;;;18.87;87.06
37610;BME280;23457;51.966;8.230;2023-05-21T09:14:21;100987.50;;;19.20;85.84
37610;BME280;23457;51.966;8.230;2023-05-21T09:16:59;100980.13;;;18.82;86.39
37610;BME280;23457;51.966;8.230;2023-05-21T09:19:26;100975.47;;;19.01;86.64
37610;BME280;23457;51.966;8.230;2023-05-21T09:22:00;100969.78;;;19.28;85.63
37610;BME280;23457;51.966;8.230;2023-05-21T09:24:29;100967.63;;;19.54;84.69
37610;BME280;23457;51.966;8.230;2023-05-21T09:27:00;100969.78;;;19.28;84.11
37610;BME280;23457;51.966;8.230;2023-05-21T09:29:29;100971.16;;;18.95;86.65
37610;BME280;23457;51.966;8.230;2023-05-21T09:31:56;100969.06;;;19.18;85.83
37610;BME280;23457;51.966;8.230;2023-05-21T09:34:23;100973.94;;;19.43;84.16
37610;BME280;23457;51.966;8.230;2023-05-21T09:36:50;100962.69;;;19.33;85.46
37610;BME280;23457;51.966;8.230;2023-05-21T09:39:27;100975.31;;;19.68;84.10
37610;BME280;23457;51.966;8.230;2023-05-21T09:41:58;100974.47;;;19.64;83.54
37610;BME280;23457;51.966;8.230;2023-05-21T09:44:25;100971.50;;;19.30;84.55
37610;BME280;23457;51.966;8.230;2023-05-21T09:46:56;100976.22;;;19.65;84.01
37610;BME280;23457;51.966;8.230;2023-05-21T09:49:27;100967.81;;;19.94;82.95
37610;BME280;23457;51.966;8.230;2023-05-21T09:51:56;100964.59;;;20.25;83.21
37610;BME280;23457;51.966;8.230;2023-05-21T09:54:24;100963.59;;;20.29;81.00
37610;BME280;23457;51.966;8.230;2023-05-21T09:56:51;100971.03;;;20.55;80.57
37610;BME280;23457;51.966;8.230;2023-05-21T09:59:19;100975.22;;;20.20;79.95
37610;BME280;23457;51.966;8.230;2023-05-21T10:01:49;100967.53;;;20.53;83.08
37610;BME280;23457;51.966;8.230;2023-05-21T10:04:17;100971.81;;;20.60;79.13
37610;BME280;23457;51.966;8.230;2023-05-21T10:06:46;100964.81;;;20.57;79.51
37610;BME280;23457;51.966;8.230;2023-05-21T10:09:14;100959.50;;;20.59;80.22
37610;BME280;23457;51.966;8.230;2023-05-21T10:11:46;100952.25;;;21.07;80.98
37610;BME280;23457;51.966;8.230;2023-05-21T10:14:22;100957.22;;;21.58;79.81
37610;BME280;23457;51.966;8.230;2023-05-21T10:16:53;100952.88;;;21.55;77.69
37610;BME280;23457;51.966;8.230;2023-05-21T10:19:21;100958.19;;;21.54;74.69
37610;BME280;23457;51.966;8.230;2023-05-21T10:21:48;100961.41;;;21.31;78.23
37610;BME280;23457;51.966;8.230;2023-05-21T10:24:18;100961.47;;;21.28;77.04
37610;BME280;23457;51.966;8.230;2023-05-21T10:26:45;100960.69;;;20.86;77.38
37610;BME280;23457;51.966;8.230;2023-05-21T10:29:14;100957.38;;;21.15;77.74
37610;BME280;23457;51.966;8.230;2023-05-21T10:31:45;100953.53;;;21.28;76.89
37610;BME280;23457;51.966;8.230;2023-05-21T10:34:15;100948.59;;;21.14;76.66
37610;BME280;23457;51.966;8.230;2023-05-21T10:36:42;100945.06;;;20.77;78.56
37610;BME280;23457;51.966;8.230;2023-05-21T10:39:11;100945.34;;;20.63;79.91
37610;BME280;23457;51.966;8.230;2023-05-21T10:41:48;100946.72;;;21.18;76.54
37610;BME280;23457;51.966;8.230;2023-05-21T10:56:30;100927.13;;;22.28;72.08
37610;BME280;23457;51.966;8.230;2023-05-21T11:01:39;100929.41;;;22.09;72.76
37610;BME280;23457;51.966;8.230;2023-05-21T11:04:06;100913.63;;;21.72;77.57
37610;BME280;23457;51.966;8.230;2023-05-21T11:06:33;100914.03;;;22.22;73.70
37610;BME280;23457;51.966;8.230;2023-05-21T11:09:01;100908.47;;;22.31;73.26
37610;BME280;23457;51.966;8.230;2023-05-21T11:11:45;100913.09;;;21.60;74.76
37610;BME280;23457;51.966;8.230;2023-05-21T11:14:31;100917.16;;;22.05;76.57
37610;BME280;23457;51.966;8.230;2023-05-21T11:17:37;100910.97;;;22.37;71.80
37610;BME280;23457;51.966;8.230;2023-05-21T11:20:12;100911.31;;;22.25;73.79
37610;BME280;23457;51.966;8.230;2023-05-21T11:22:44;100902.41;;;21.95;74.70
37610;BME280;23457;51.966;8.230;2023-05-21T11:25:12;100901.44;;;22.30;74.31
37610;BME280;23457;51.966;8.230;2023-05-21T11:27:40;100908.78;;;22.51;72.65
37610;BME280;23457;51.966;8.230;2023-05-21T11:30:14;100912.31;;;22.50;71.65
37610;BME280;23457;51.966;8.230;2023-05-21T11:38:11;100892.53;;;22.62;73.47
37610;BME280;23457;51.966;8.230;2023-05-21T11:40:49;100892.06;;;22.79;72.03
37610;BME280;23457;51.966;8.230;2023-05-21T11:43:17;100897.69;;;22.96;70.04
37610;BME280;23457;51.966;8.230;2023-05-21T11:45:43;100892.53;;;22.62;70.90
37610;BME280;23457;51.966;8.230;2023-05-21T11:48:12;100890.06;;;22.85;73.02
37610;BME280;23457;51.966;8.230;2023-05-21T11:50:39;100890.22;;;23.07;69.79
37610;BME280;23457;51.966;8.230;2023-05-21T11:53:08;100881.00;;;23.45;70.42
37610;BME280;23457;51.966;8.230;2023-05-21T11:55:37;100884.31;;;23.78;66.47
37610;BME280;23457;51.966;8.230;2023-05-21T11:58:11;100881.47;;;23.32;68.20
37610;BME280;23457;51.966;8.230;2023-05-21T12:00:39;100879.75;;;23.04;71.63
37610;BME280;23457;51.966;8.230;2023-05-21T12:03:06;100882.06;;;22.58;71.24
37610;BME280;23457;51.966;8.230;2023-05-21T12:05:47;100876.78;;;23.13;69.51
37610;BME280;23457;51.966;8.230;2023-05-21T12:08:21;100883.16;;;23.34;70.27
37610;BME280;23457;51.966;8.230;2023-05-21T12:10:58;100876.53;;;23.72;67.48
37610;BME280;23457;51.966;8.230;2023-05-21T12:13:25;100880.56;;;23.59;67.65
37610;BME280;23457;51.966;8.230;2023-05-21T12:15:53;100877.66;;;23.67;67.03
37610;BME280;23457;51.966;8.230;2023-05-21T12:18:20;100873.88;;;23.97;67.18
37610;BME280;23457;51.966;8.230;2023-05-21T12:20:47;100873.22;;;23.67;66.30
37610;BME280;23457;51.966;8.230;2023-05-21T12:23:22;100873.50;;;23.83;67.48
37610;BME280;23457;51.966;8.230;2023-05-21T12:25:50;100863.56;;;23.65;66.67
37610;BME280;23457;51.966;8.230;2023-05-21T12:28:16;100869.31;;;23.77;67.45
37610;BME280;23457;51.966;8.230;2023-05-21T12:30:43;100869.25;;;23.54;68.87
37610;BME280;23457;51.966;8.230;2023-05-21T12:33:10;100872.59;;;23.33;69.34
37610;BME280;23457;51.966;8.230;2023-05-21T12:35:37;100871.13;;;23.24;69.82
37610;BME280;23457;51.966;8.230;2023-05-21T12:38:05;100869.97;;;23.82;67.95
37610;BME280;23457;51.966;8.230;2023-05-21T12:40:36;100871.66;;;23.85;67.12
37610;BME280;23457;51.966;8.230;2023-05-21T12:43:06;100875.72;;;23.95;66.56
37610;BME280;23457;51.966;8.230;2023-05-21T12:45:33;100867.94;;;23.66;67.53
37610;BME280;23457;51.966;8.230;2023-05-21T12:48:02;100865.41;;;23.63;68.71
37610;BME280;23457;51.966;8.230;2023-05-21T12:50:29;100864.44;;;23.65;69.74
37610;BME280;23457;51.966;8.230;2023-05-21T12:52:56;100855.16;;;23.52;72.05
37610;BME280;23457;51.966;8.230;2023-05-21T12:55:24;100869.81;;;23.87;68.07
37610;BME280;23457;51.966;8.230;2023-05-21T12:58:03;100861.53;;;23.71;68.85
37610;BME280;23457;51.966;8.230;2023-05-21T13:00:34;100863.53;;;23.89;68.77
37610;BME280;23457;51.966;8.230;2023-05-21T13:03:02;100859.91;;;24.15;68.51
37610;BME280;23457;51.966;8.230;2023-05-21T13:05:30;100858.63;;;24.27;68.30
37610;BME280;23457;51.966;8.230;2023-05-21T13:07:57;100858.03;;;24.19;67.92
37610;BME280;23457;51.966;8.230;2023-05-21T13:10:23;100848.88;;;23.79;69.66
37610;BME280;23457;51.966;8.230;2023-05-21T13:12:50;100847.69;;;23.63;71.54
37610;BME280;23457;51.966;8.230;2023-05-21T13:15:17;100854.50;;;23.70;71.22
37610;BME280;23457;51.966;8.230;2023-05-21T13:17:44;100858.13;;;24.16;69.35